createdAt,value
2023-02-24T00:00:11.081Z,18.05
2023-02-24T00:00:42.474Z,18.04
2023-02-24T00:01:13.906Z,18.05
2023-02-24T00:01:45.334Z,18.04
2023-02-24T00:02:16.760Z,18.04
2023-02-24T00:02:48.244Z,18.04
2023-02-24T00:03:19.732Z,18.04
2023-02-24T00:03:51.198Z,18.03
2023-02-24T00:04:22.706Z,18.03
2023-02-24T00:04:54.107Z,18.03
2023-02-24T00:05:25.517Z,18.03
2023-02-24T00:05:56.940Z,18.03
2023-02-24T00:06:28.339Z,18.03
2023-02-24T00:06:59.732Z,18.03
2023-02-24T00:07:31.132Z,18.02
2023-02-24T00:08:02.520Z,18.03
2023-02-24T00:08:33.909Z,18.02
2023-02-24T00:09:05.327Z,18.01
2023-02-24T00:09:36.752Z,18.00
2023-02-24T00:10:08.149Z,17.98
2023-02-24T00:10:39.572Z,17.98
2023-02-24T00:11:10.958Z,17.98
2023-02-24T00:11:42.356Z,17.97
2023-02-24T00:12:13.794Z,17.95
2023-02-24T00:12:45.205Z,17.99
2023-02-24T00:13:16.600Z,17.98
2023-02-24T00:13:48.008Z,17.98
2023-02-24T00:14:19.445Z,17.98
2023-02-24T00:14:50.879Z,17.98
2023-02-24T00:15:22.284Z,17.99
2023-02-24T00:15:53.732Z,17.98
2023-02-24T00:16:25.277Z,17.95
2023-02-24T00:16:56.840Z,17.97
2023-02-24T00:17:28.330Z,17.97
2023-02-24T00:17:59.742Z,17.94
2023-02-24T00:18:31.174Z,17.95
2023-02-24T00:19:02.588Z,17.97
2023-02-24T00:19:34.331Z,17.95
2023-02-24T00:20:05.774Z,17.96
2023-02-24T00:20:37.209Z,17.95
2023-02-24T00:21:08.613Z,17.93
2023-02-24T00:21:40.037Z,17.94
2023-02-24T00:22:11.585Z,17.93
2023-02-24T00:22:42.998Z,17.90
2023-02-24T00:23:14.391Z,17.89
2023-02-24T00:23:45.802Z,17.93
2023-02-24T00:24:17.212Z,17.89
2023-02-24T00:24:48.652Z,17.89
2023-02-24T00:25:20.069Z,17.86
2023-02-24T00:25:51.484Z,17.88
2023-02-24T00:26:22.883Z,17.89
2023-02-24T00:26:54.300Z,17.88
2023-02-24T00:27:25.711Z,17.86
2023-02-24T00:27:57.135Z,17.88
2023-02-24T00:28:28.529Z,17.88
2023-02-24T00:28:59.956Z,17.86
2023-02-24T00:29:31.391Z,17.86
2023-02-24T00:30:02.851Z,17.86
2023-02-24T00:30:34.263Z,17.86
2023-02-24T00:31:05.765Z,17.86
2023-02-24T00:31:37.375Z,17.83
2023-02-24T00:32:08.961Z,17.84
2023-02-24T00:32:40.585Z,17.85
2023-02-24T00:33:12.086Z,17.84
2023-02-24T00:33:43.492Z,17.85
2023-02-24T00:34:14.979Z,17.85
2023-02-24T00:34:46.434Z,17.84
2023-02-24T00:35:17.874Z,17.84
2023-02-24T00:35:49.271Z,17.84
2023-02-24T00:36:20.688Z,17.86
2023-02-24T00:36:52.086Z,17.83
2023-02-24T00:37:23.481Z,17.84
2023-02-24T00:37:54.940Z,17.83
2023-02-24T00:38:26.338Z,17.82
2023-02-24T00:38:57.755Z,17.83
2023-02-24T00:39:29.147Z,17.80
2023-02-24T00:40:00.548Z,17.82
2023-02-24T00:40:31.980Z,17.83
2023-02-24T00:41:03.382Z,17.81
2023-02-24T00:41:34.793Z,17.81
2023-02-24T00:42:06.186Z,17.80
2023-02-24T00:42:37.579Z,17.80
2023-02-24T00:43:09.009Z,17.81
2023-02-24T00:43:40.406Z,17.82
2023-02-24T00:44:11.817Z,17.81
2023-02-24T00:44:43.211Z,17.81
2023-02-24T00:45:14.626Z,17.79
2023-02-24T00:45:46.036Z,17.80
2023-02-24T00:46:17.560Z,17.79
2023-02-24T00:46:49.080Z,17.80
2023-02-24T00:47:20.742Z,17.80
2023-02-24T00:47:52.214Z,17.80
2023-02-24T00:48:23.610Z,17.80
2023-02-24T00:48:55.021Z,17.77
2023-02-24T00:49:26.439Z,17.79
2023-02-24T00:49:57.839Z,17.78
2023-02-24T00:50:29.284Z,17.79
2023-02-24T00:51:00.680Z,17.77
2023-02-24T00:51:32.091Z,17.75
2023-02-24T00:52:03.547Z,17.75
2023-02-24T00:52:34.951Z,17.75
2023-02-24T00:53:06.348Z,17.74
2023-02-24T00:53:37.750Z,17.76
2023-02-24T00:54:09.164Z,17.74
2023-02-24T00:54:40.558Z,17.75
2023-02-24T00:55:11.960Z,17.75
2023-02-24T00:55:43.428Z,17.75
2023-02-24T00:56:14.839Z,17.74
2023-02-24T00:56:46.260Z,17.75
2023-02-24T00:57:17.670Z,17.75
2023-02-24T00:57:49.082Z,17.74
2023-02-24T00:58:20.495Z,17.74
2023-02-24T00:58:51.906Z,17.73
2023-02-24T00:59:23.327Z,17.72
2023-02-24T00:59:54.735Z,17.72
2023-02-24T01:00:26.197Z,17.73
2023-02-24T01:00:57.608Z,17.71
2023-02-24T01:01:29.041Z,17.72
2023-02-24T01:02:00.520Z,17.72
2023-02-24T01:02:31.950Z,17.71
2023-02-24T01:03:03.368Z,17.71
2023-02-24T01:03:34.851Z,17.71
2023-02-24T01:04:06.301Z,17.70
2023-02-24T01:04:37.878Z,17.71
2023-02-24T01:05:09.351Z,17.71
2023-02-24T01:05:40.793Z,17.71
2023-02-24T01:06:12.224Z,17.70
2023-02-24T01:06:43.645Z,17.69
2023-02-24T01:07:15.086Z,17.69
2023-02-24T01:07:46.532Z,17.68
2023-02-24T01:08:17.957Z,17.68
2023-02-24T01:08:49.371Z,17.68
2023-02-24T01:09:20.796Z,17.68
2023-02-24T01:09:52.213Z,17.66
2023-02-24T01:10:23.615Z,17.68
2023-02-24T01:10:55.064Z,17.67
2023-02-24T01:11:26.487Z,17.66
2023-02-24T01:11:57.946Z,17.66
2023-02-24T01:12:29.377Z,17.66
2023-02-24T01:13:00.812Z,17.66
2023-02-24T01:13:32.215Z,17.62
2023-02-24T01:14:03.607Z,17.63
2023-02-24T01:14:35.023Z,17.64
2023-02-24T01:15:06.417Z,17.63
2023-02-24T01:15:37.825Z,17.64
2023-02-24T01:16:09.287Z,17.65
2023-02-24T01:16:40.703Z,17.63
2023-02-24T01:17:12.118Z,17.65
2023-02-24T01:17:43.562Z,17.65
2023-02-24T01:18:14.958Z,17.65
2023-02-24T01:18:46.376Z,17.64
2023-02-24T01:19:17.764Z,17.62
2023-02-24T01:19:49.203Z,17.62
2023-02-24T01:20:20.652Z,17.63
2023-02-24T01:20:52.081Z,17.62
2023-02-24T01:21:23.503Z,17.61
2023-02-24T01:21:54.898Z,17.62
2023-02-24T01:22:26.312Z,17.61
2023-02-24T01:22:57.761Z,17.62
2023-02-24T01:23:29.173Z,17.61
2023-02-24T01:24:00.569Z,17.60
2023-02-24T01:24:31.975Z,17.59
2023-02-24T01:25:03.386Z,17.60
2023-02-24T01:25:34.806Z,17.60
2023-02-24T01:26:06.220Z,17.59
2023-02-24T01:26:37.643Z,17.58
2023-02-24T01:27:09.051Z,17.57
2023-02-24T01:27:40.460Z,17.57
2023-02-24T01:28:11.921Z,17.58
2023-02-24T01:28:43.322Z,17.58
2023-02-24T01:29:14.743Z,17.57
2023-02-24T01:29:46.158Z,17.56
2023-02-24T01:30:17.572Z,17.55
2023-02-24T01:30:49.004Z,17.56
2023-02-24T01:31:20.853Z,17.57
2023-02-24T01:31:52.612Z,17.56
2023-02-24T01:32:24.293Z,17.54
2023-02-24T01:32:55.999Z,17.55
2023-02-24T01:33:27.566Z,17.55
2023-02-24T01:33:58.958Z,17.54
2023-02-24T01:34:30.357Z,17.54
2023-02-24T01:35:01.792Z,17.54
2023-02-24T01:35:33.203Z,17.54
2023-02-24T01:36:04.622Z,17.54
2023-02-24T01:36:36.015Z,17.54
2023-02-24T01:37:07.415Z,17.54
2023-02-24T01:37:38.965Z,17.53
2023-02-24T01:38:10.360Z,17.53
2023-02-24T01:38:41.796Z,17.52
2023-02-24T01:39:13.184Z,17.52
2023-02-24T01:39:44.623Z,17.52
2023-02-24T01:40:16.037Z,17.51
2023-02-24T01:40:47.452Z,17.51
2023-02-24T01:41:19.137Z,17.51
2023-02-24T01:41:50.790Z,17.51
2023-02-24T01:42:22.222Z,17.50
2023-02-24T01:42:53.672Z,17.49
2023-02-24T01:43:25.072Z,17.49
2023-02-24T01:43:56.511Z,17.49
2023-02-24T01:44:27.909Z,17.50
2023-02-24T01:44:59.327Z,17.49
2023-02-24T01:45:30.745Z,17.48
2023-02-24T01:46:02.169Z,17.48
2023-02-24T01:46:33.601Z,17.47
2023-02-24T01:47:05.023Z,17.47
2023-02-24T01:47:36.435Z,17.48
2023-02-24T01:48:07.853Z,17.47
2023-02-24T01:48:39.259Z,17.47
2023-02-24T01:49:10.672Z,17.47
2023-02-24T01:49:42.084Z,17.47
2023-02-24T01:50:13.501Z,17.46
2023-02-24T01:50:44.919Z,17.45
2023-02-24T01:51:16.327Z,17.45
2023-02-24T01:51:47.729Z,17.45
2023-02-24T01:52:19.162Z,17.45
2023-02-24T01:52:50.546Z,17.43
2023-02-24T01:53:22.014Z,17.43
2023-02-24T01:53:53.411Z,17.44
2023-02-24T01:54:24.828Z,17.43
2023-02-24T01:54:56.247Z,17.43
2023-02-24T01:55:27.655Z,17.42
2023-02-24T01:55:59.048Z,17.41
2023-02-24T01:56:30.467Z,17.42
2023-02-24T01:57:01.881Z,17.42
2023-02-24T01:57:33.297Z,17.42
2023-02-24T01:58:04.685Z,17.41
2023-02-24T01:58:36.104Z,17.41
2023-02-24T01:59:07.508Z,17.40
2023-02-24T01:59:38.930Z,17.41
2023-02-24T02:00:10.345Z,17.39
2023-02-24T02:00:41.740Z,17.40
2023-02-24T02:01:13.183Z,17.40
2023-02-24T02:01:44.650Z,17.39
2023-02-24T02:02:16.290Z,17.40
2023-02-24T02:02:47.938Z,17.39
2023-02-24T02:03:19.474Z,17.39
2023-02-24T02:03:50.928Z,17.38
2023-02-24T02:04:22.331Z,17.40
2023-02-24T02:04:53.744Z,17.39
2023-02-24T02:05:25.166Z,17.39
2023-02-24T02:05:56.606Z,17.40
2023-02-24T02:06:28.017Z,17.40
2023-02-24T02:06:59.417Z,17.40
2023-02-24T02:07:30.831Z,17.38
2023-02-24T02:08:02.255Z,17.37
2023-02-24T02:08:33.666Z,17.37
2023-02-24T02:09:05.093Z,17.38
2023-02-24T02:09:36.485Z,17.39
2023-02-24T02:10:07.881Z,17.37
2023-02-24T02:10:39.474Z,17.37
2023-02-24T02:11:10.919Z,17.36
2023-02-24T02:11:42.317Z,17.37
2023-02-24T02:12:13.725Z,17.37
2023-02-24T02:12:45.148Z,17.36
2023-02-24T02:13:16.563Z,17.34
2023-02-24T02:13:47.981Z,17.36
2023-02-24T02:14:19.484Z,17.36
2023-02-24T02:14:50.902Z,17.34
2023-02-24T02:15:22.312Z,17.36
2023-02-24T02:15:53.808Z,17.34
2023-02-24T02:16:25.234Z,17.33
2023-02-24T02:16:56.689Z,17.33
2023-02-24T02:17:28.089Z,17.33
2023-02-24T02:17:59.482Z,17.33
2023-02-24T02:18:30.921Z,17.31
2023-02-24T02:19:02.349Z,17.32
2023-02-24T02:19:33.828Z,17.31
2023-02-24T02:20:05.232Z,17.31
2023-02-24T02:20:36.632Z,17.31
2023-02-24T02:21:08.077Z,17.30
2023-02-24T02:21:39.469Z,17.29
2023-02-24T02:22:10.889Z,17.29
2023-02-24T02:22:42.309Z,17.30
2023-02-24T02:23:13.750Z,17.30
2023-02-24T02:23:45.182Z,17.29
2023-02-24T02:24:16.600Z,17.29
2023-02-24T02:24:48.014Z,17.29
2023-02-24T02:25:19.409Z,17.27
2023-02-24T02:25:50.823Z,17.28
2023-02-24T02:26:22.287Z,17.28
2023-02-24T02:26:53.706Z,17.27
2023-02-24T02:27:25.109Z,17.27
2023-02-24T02:27:56.499Z,17.27
2023-02-24T02:28:27.895Z,17.28
2023-02-24T02:28:59.318Z,17.28
2023-02-24T02:29:30.747Z,17.26
2023-02-24T02:30:02.189Z,17.26
2023-02-24T02:30:33.678Z,17.26
2023-02-24T02:31:05.220Z,17.26
2023-02-24T02:31:36.878Z,17.26
2023-02-24T02:32:08.521Z,17.25
2023-02-24T02:32:40.135Z,17.25
2023-02-24T02:33:11.630Z,17.25
2023-02-24T02:33:43.046Z,17.25
2023-02-24T02:34:14.540Z,17.24
2023-02-24T02:34:45.982Z,17.24
2023-02-24T02:35:17.439Z,17.24
2023-02-24T02:35:48.840Z,17.23
2023-02-24T02:36:20.251Z,17.23
2023-02-24T02:36:51.696Z,17.23
2023-02-24T02:37:23.091Z,17.23
2023-02-24T02:37:54.483Z,17.23
2023-02-24T02:38:25.904Z,17.23
2023-02-24T02:38:57.311Z,17.22
2023-02-24T02:39:28.724Z,17.23
2023-02-24T02:40:00.139Z,17.23
2023-02-24T02:40:31.589Z,17.23
2023-02-24T02:41:03.020Z,17.21
2023-02-24T02:41:34.411Z,17.22
2023-02-24T02:42:05.857Z,17.22
2023-02-24T02:42:37.250Z,17.21
2023-02-24T02:43:08.691Z,17.20
2023-02-24T02:43:40.110Z,17.20
2023-02-24T02:44:11.663Z,17.20
2023-02-24T02:44:43.073Z,17.20
2023-02-24T02:45:14.508Z,17.20
2023-02-24T02:45:46.028Z,17.18
2023-02-24T02:46:17.544Z,17.18
2023-02-24T02:46:48.971Z,17.17
2023-02-24T02:47:20.400Z,17.17
2023-02-24T02:47:51.805Z,17.17
2023-02-24T02:48:23.208Z,17.17
2023-02-24T02:48:54.613Z,17.15
2023-02-24T02:49:26.013Z,17.16
2023-02-24T02:49:57.451Z,17.15
2023-02-24T02:50:28.848Z,17.16
2023-02-24T02:51:00.272Z,17.15
2023-02-24T02:51:31.695Z,17.16
2023-02-24T02:52:03.115Z,17.16
2023-02-24T02:52:34.514Z,17.16
2023-02-24T02:53:05.926Z,17.16
2023-02-24T02:53:37.363Z,17.16
2023-02-24T02:54:08.757Z,17.15
2023-02-24T02:54:40.158Z,17.14
2023-02-24T02:55:11.633Z,17.14
2023-02-24T02:55:43.051Z,17.14
2023-02-24T02:56:14.446Z,17.15
2023-02-24T02:56:45.883Z,17.14
2023-02-24T02:57:17.286Z,17.14
2023-02-24T02:57:48.680Z,17.14
2023-02-24T02:58:20.136Z,17.14
2023-02-24T02:58:51.556Z,17.14
2023-02-24T02:59:22.955Z,17.14
2023-02-24T02:59:54.355Z,17.14
2023-02-24T03:00:25.783Z,17.14
2023-02-24T03:00:57.282Z,17.12
2023-02-24T03:01:28.740Z,17.13
2023-02-24T03:02:00.223Z,17.12
2023-02-24T03:02:31.627Z,17.12
2023-02-24T03:03:03.064Z,17.12
2023-02-24T03:03:34.460Z,17.11
2023-02-24T03:04:05.863Z,17.12
2023-02-24T03:04:37.287Z,17.11
2023-02-24T03:05:08.695Z,17.12
2023-02-24T03:05:40.083Z,17.12
2023-02-24T03:06:11.484Z,17.12
2023-02-24T03:06:42.899Z,17.11
2023-02-24T03:07:14.320Z,17.09
2023-02-24T03:07:45.712Z,17.11
2023-02-24T03:08:17.192Z,17.08
2023-02-24T03:08:48.583Z,17.11
2023-02-24T03:09:20.004Z,17.09
2023-02-24T03:09:51.428Z,17.09
2023-02-24T03:10:22.832Z,17.08
2023-02-24T03:10:54.255Z,17.08
2023-02-24T03:11:25.681Z,17.08
2023-02-24T03:11:57.081Z,17.08
2023-02-24T03:12:28.494Z,17.08
2023-02-24T03:12:59.902Z,17.07
2023-02-24T03:13:31.348Z,17.07
2023-02-24T03:14:02.754Z,17.08
2023-02-24T03:14:34.143Z,17.08
2023-02-24T03:15:05.536Z,17.07
2023-02-24T03:15:36.950Z,17.07
2023-02-24T03:16:08.394Z,17.05
2023-02-24T03:16:39.806Z,17.05
2023-02-24T03:17:11.242Z,17.05
2023-02-24T03:17:42.642Z,17.04
2023-02-24T03:18:14.107Z,17.05
2023-02-24T03:18:45.524Z,17.04
2023-02-24T03:19:16.953Z,17.04
2023-02-24T03:19:48.372Z,17.04
2023-02-24T03:20:19.784Z,17.04
2023-02-24T03:20:51.206Z,17.05
2023-02-24T03:21:22.891Z,17.04
2023-02-24T03:21:54.467Z,17.03
2023-02-24T03:22:25.871Z,17.04
2023-02-24T03:22:57.255Z,17.03
2023-02-24T03:23:28.706Z,17.03
2023-02-24T03:24:00.128Z,17.02
2023-02-24T03:24:31.536Z,17.03
2023-02-24T03:25:02.953Z,17.03
2023-02-24T03:25:34.367Z,17.02
2023-02-24T03:26:05.782Z,17.02
2023-02-24T03:26:37.191Z,17.02
2023-02-24T03:27:08.587Z,17.02
2023-02-24T03:27:39.984Z,17.02
2023-02-24T03:28:11.421Z,17.02
2023-02-24T03:28:42.836Z,17.02
2023-02-24T03:29:14.255Z,17.01
2023-02-24T03:29:45.648Z,17.00
2023-02-24T03:30:17.065Z,17.01
2023-02-24T03:30:48.509Z,16.99
2023-02-24T03:31:20.405Z,17.00
2023-02-24T03:31:52.236Z,16.99
2023-02-24T03:32:23.759Z,16.97
2023-02-24T03:32:55.392Z,16.98
2023-02-24T03:33:26.831Z,16.99
2023-02-24T03:33:58.249Z,16.98
2023-02-24T03:34:29.654Z,16.97
2023-02-24T03:35:01.049Z,16.97
2023-02-24T03:35:32.468Z,16.97
2023-02-24T03:36:03.889Z,16.97
2023-02-24T03:36:35.291Z,16.95
2023-02-24T03:37:06.706Z,16.96
2023-02-24T03:37:38.115Z,16.97
2023-02-24T03:38:09.505Z,16.96
2023-02-24T03:38:40.950Z,16.97
2023-02-24T03:39:12.536Z,16.97
2023-02-24T03:39:44.031Z,16.97
2023-02-24T03:40:15.441Z,16.98
2023-02-24T03:40:46.858Z,16.98
2023-02-24T03:41:18.645Z,16.96
2023-02-24T03:41:50.338Z,16.97
2023-02-24T03:42:21.744Z,16.96
2023-02-24T03:42:53.155Z,16.96
2023-02-24T03:43:24.574Z,16.95
2023-02-24T03:43:55.991Z,16.95
2023-02-24T03:44:27.383Z,16.95
2023-02-24T03:44:58.794Z,16.95
2023-02-24T03:45:30.211Z,16.95
2023-02-24T03:46:01.698Z,16.95
2023-02-24T03:46:33.192Z,16.92
2023-02-24T03:47:04.606Z,16.94
2023-02-24T03:47:36.019Z,16.94
2023-02-24T03:48:07.441Z,16.92
2023-02-24T03:48:38.850Z,16.92
2023-02-24T03:49:10.304Z,16.92
2023-02-24T03:49:41.719Z,16.92
2023-02-24T03:50:13.118Z,16.92
2023-02-24T03:50:44.527Z,16.91
2023-02-24T03:51:15.914Z,16.91
2023-02-24T03:51:47.310Z,16.91
2023-02-24T03:52:18.723Z,16.91
2023-02-24T03:52:50.117Z,16.89
2023-02-24T03:53:21.536Z,16.90
2023-02-24T03:53:52.964Z,16.91
2023-02-24T03:54:24.424Z,16.90
2023-02-24T03:54:55.834Z,16.90
2023-02-24T03:55:27.235Z,16.90
2023-02-24T03:55:58.640Z,16.89
2023-02-24T03:56:30.070Z,16.89
2023-02-24T03:57:01.472Z,16.88
2023-02-24T03:57:32.886Z,16.88
2023-02-24T03:58:04.280Z,16.88
2023-02-24T03:58:35.743Z,16.88
2023-02-24T03:59:07.147Z,16.88
2023-02-24T03:59:38.583Z,16.87
2023-02-24T04:00:10.012Z,16.88
2023-02-24T04:00:41.436Z,16.88
2023-02-24T04:01:12.852Z,16.88
2023-02-24T04:01:44.237Z,16.87
2023-02-24T04:02:15.663Z,16.86
2023-02-24T04:02:47.191Z,16.87
2023-02-24T04:03:18.661Z,16.86
2023-02-24T04:03:50.114Z,16.86
2023-02-24T04:04:21.621Z,16.86
2023-02-24T04:04:53.123Z,16.85
2023-02-24T04:05:24.530Z,16.85
2023-02-24T04:05:55.943Z,16.86
2023-02-24T04:06:27.352Z,16.86
2023-02-24T04:06:58.779Z,16.83
2023-02-24T04:07:30.196Z,16.84
2023-02-24T04:08:01.602Z,16.84
2023-02-24T04:08:33.015Z,16.83
2023-02-24T04:09:04.448Z,16.86
2023-02-24T04:09:35.862Z,16.84
2023-02-24T04:10:07.354Z,16.84
2023-02-24T04:10:38.778Z,16.84
2023-02-24T04:11:10.191Z,16.84
2023-02-24T04:11:41.589Z,16.83
2023-02-24T04:12:13.056Z,16.83
2023-02-24T04:12:44.527Z,16.83
2023-02-24T04:13:15.967Z,16.84
2023-02-24T04:13:47.393Z,16.82
2023-02-24T04:14:18.828Z,16.84
2023-02-24T04:14:50.235Z,16.85
2023-02-24T04:15:21.687Z,16.83
2023-02-24T04:15:53.362Z,16.83
2023-02-24T04:16:24.775Z,16.83
2023-02-24T04:16:56.177Z,16.83
2023-02-24T04:17:27.630Z,16.82
2023-02-24T04:17:59.051Z,16.82
2023-02-24T04:18:30.465Z,16.82
2023-02-24T04:19:01.888Z,16.81
2023-02-24T04:19:33.323Z,16.81
2023-02-24T04:20:04.715Z,16.81
2023-02-24T04:20:36.142Z,16.81
2023-02-24T04:21:07.565Z,16.82
2023-02-24T04:21:38.974Z,16.80
2023-02-24T04:22:10.387Z,16.82
2023-02-24T04:22:41.786Z,16.81
2023-02-24T04:23:13.192Z,16.80
2023-02-24T04:23:44.601Z,16.81
2023-02-24T04:24:16.007Z,16.81
2023-02-24T04:24:47.434Z,16.79
2023-02-24T04:25:18.862Z,16.80
2023-02-24T04:25:50.287Z,16.79
2023-02-24T04:26:21.683Z,16.78
2023-02-24T04:26:53.118Z,16.79
2023-02-24T04:27:24.538Z,16.80
2023-02-24T04:27:55.939Z,16.80
2023-02-24T04:28:27.328Z,16.79
2023-02-24T04:28:58.728Z,16.76
2023-02-24T04:29:30.133Z,16.79
2023-02-24T04:30:01.599Z,16.76
2023-02-24T04:30:33.011Z,16.75
2023-02-24T04:31:04.614Z,16.76
2023-02-24T04:31:36.183Z,16.76
2023-02-24T04:32:07.763Z,16.76
2023-02-24T04:32:39.404Z,16.76
2023-02-24T04:33:10.813Z,16.76
2023-02-24T04:33:42.217Z,16.76
2023-02-24T04:34:13.608Z,16.76
2023-02-24T04:34:45.025Z,16.75
2023-02-24T04:35:16.452Z,16.75
2023-02-24T04:35:47.861Z,16.75
2023-02-24T04:36:19.320Z,16.74
2023-02-24T04:36:50.769Z,16.74
2023-02-24T04:37:22.180Z,16.74
2023-02-24T04:37:53.590Z,16.76
2023-02-24T04:38:25.001Z,16.75
2023-02-24T04:38:56.424Z,16.75
2023-02-24T04:39:27.840Z,16.75
2023-02-24T04:39:59.243Z,16.74
2023-02-24T04:40:30.675Z,16.74
2023-02-24T04:41:02.085Z,16.73
2023-02-24T04:41:33.530Z,16.75
2023-02-24T04:42:04.938Z,16.74
2023-02-24T04:42:36.349Z,16.73
2023-02-24T04:43:07.737Z,16.73
2023-02-24T04:43:39.136Z,16.72
2023-02-24T04:44:10.527Z,16.73
2023-02-24T04:44:41.923Z,16.73
2023-02-24T04:45:13.322Z,16.73
2023-02-24T04:45:44.758Z,16.72
2023-02-24T04:46:16.276Z,16.74
2023-02-24T04:46:47.779Z,16.73
2023-02-24T04:47:19.202Z,16.72
2023-02-24T04:47:50.602Z,16.72
2023-02-24T04:48:22.008Z,16.72
2023-02-24T04:48:53.430Z,16.72
2023-02-24T04:49:24.833Z,16.72
2023-02-24T04:49:56.255Z,16.72
2023-02-24T04:50:27.650Z,16.72
2023-02-24T04:50:59.103Z,16.71
2023-02-24T04:51:30.503Z,16.72
2023-02-24T04:52:01.909Z,16.69
2023-02-24T04:52:33.307Z,16.70
2023-02-24T04:53:04.707Z,16.70
2023-02-24T04:53:36.105Z,16.69
2023-02-24T04:54:07.520Z,16.69
2023-02-24T04:54:38.931Z,16.69
2023-02-24T04:55:10.323Z,16.70
2023-02-24T04:55:41.731Z,16.69
2023-02-24T04:56:13.155Z,16.70
2023-02-24T04:56:44.603Z,16.69
2023-02-24T04:57:16.001Z,16.70
2023-02-24T04:57:47.395Z,16.70
2023-02-24T04:58:18.794Z,16.69
2023-02-24T04:58:50.213Z,16.69
2023-02-24T04:59:21.616Z,16.68
2023-02-24T04:59:53.008Z,16.68
2023-02-24T05:00:24.421Z,16.68
2023-02-24T05:00:55.900Z,16.69
2023-02-24T05:01:27.433Z,16.69
2023-02-24T05:01:58.858Z,16.69
2023-02-24T05:02:30.255Z,16.70
2023-02-24T05:03:01.651Z,16.69
2023-02-24T05:03:33.168Z,16.68
2023-02-24T05:04:04.728Z,16.68
2023-02-24T05:04:36.228Z,16.68
2023-02-24T05:05:07.651Z,16.68
2023-02-24T05:05:39.081Z,16.68
2023-02-24T05:06:10.488Z,16.68
2023-02-24T05:06:41.907Z,16.68
2023-02-24T05:07:13.303Z,16.68
2023-02-24T05:07:44.702Z,16.68
2023-02-24T05:08:16.112Z,16.68
2023-02-24T05:08:47.515Z,16.67
2023-02-24T05:09:18.906Z,16.67
2023-02-24T05:09:50.305Z,16.68
2023-02-24T05:10:21.735Z,16.67
2023-02-24T05:10:53.152Z,16.67
2023-02-24T05:11:24.582Z,16.68
2023-02-24T05:11:55.979Z,16.66
2023-02-24T05:12:27.375Z,16.67
2023-02-24T05:12:59.454Z,16.67
2023-02-24T05:13:32.211Z,16.66
2023-02-24T05:14:03.627Z,16.66
2023-02-24T05:14:35.056Z,16.67
2023-02-24T05:15:06.448Z,16.66
2023-02-24T05:15:37.848Z,16.65
2023-02-24T05:16:09.318Z,16.67
2023-02-24T05:16:40.966Z,16.66
2023-02-24T05:17:12.467Z,16.65
2023-02-24T05:17:43.863Z,16.65
2023-02-24T05:18:15.276Z,16.65
2023-02-24T05:18:46.889Z,16.66
2023-02-24T05:19:18.314Z,16.66
2023-02-24T05:19:49.737Z,16.65
2023-02-24T05:20:21.144Z,16.66
2023-02-24T05:20:52.545Z,16.65
2023-02-24T05:21:23.943Z,16.65
2023-02-24T05:21:55.440Z,16.63
2023-02-24T05:22:26.857Z,16.62
2023-02-24T05:22:58.275Z,16.63
2023-02-24T05:23:29.683Z,16.62
2023-02-24T05:24:01.074Z,16.62
2023-02-24T05:24:32.607Z,16.64
2023-02-24T05:25:04.002Z,16.62
2023-02-24T05:25:35.392Z,16.63
2023-02-24T05:26:06.809Z,16.63
2023-02-24T05:26:38.287Z,16.64
2023-02-24T05:27:09.706Z,16.63
2023-02-24T05:27:41.154Z,16.61
2023-02-24T05:28:12.579Z,16.63
2023-02-24T05:28:44.004Z,16.62
2023-02-24T05:29:15.431Z,16.64
2023-02-24T05:29:46.843Z,16.64
2023-02-24T05:30:18.244Z,16.64
2023-02-24T05:30:49.692Z,16.64
2023-02-24T05:31:21.531Z,16.65
2023-02-24T05:31:53.328Z,16.65
2023-02-24T05:32:24.869Z,16.66
2023-02-24T05:32:56.328Z,16.64
2023-02-24T05:33:27.729Z,16.65
2023-02-24T05:33:59.175Z,16.65
2023-02-24T05:34:30.632Z,16.65
2023-02-24T05:35:02.077Z,16.64
2023-02-24T05:35:33.465Z,16.64
2023-02-24T05:36:05.762Z,16.65
2023-02-24T05:36:37.252Z,16.66
2023-02-24T05:37:08.680Z,16.67
2023-02-24T05:37:40.081Z,16.66
2023-02-24T05:38:11.476Z,16.65
2023-02-24T05:38:42.889Z,16.67
2023-02-24T05:39:14.287Z,16.66
2023-02-24T05:39:45.698Z,16.65
2023-02-24T05:40:17.097Z,16.67
2023-02-24T05:40:48.530Z,16.67
2023-02-24T05:41:20.246Z,16.67
2023-02-24T05:41:51.827Z,16.68
2023-02-24T05:42:23.268Z,16.68
2023-02-24T05:42:54.674Z,16.68
2023-02-24T05:43:26.081Z,16.67
2023-02-24T05:43:57.504Z,16.67
2023-02-24T05:44:28.916Z,16.68
2023-02-24T05:45:00.308Z,16.68
2023-02-24T05:45:31.702Z,16.68
2023-02-24T05:46:03.112Z,16.69
2023-02-24T05:46:34.572Z,16.69
2023-02-24T05:47:06.154Z,16.69
2023-02-24T05:47:37.686Z,16.68
2023-02-24T05:48:09.107Z,16.69
2023-02-24T05:48:40.525Z,16.70
2023-02-24T05:49:11.927Z,16.70
2023-02-24T05:49:43.334Z,16.70
2023-02-24T05:50:14.753Z,16.71
2023-02-24T05:50:46.167Z,16.71
2023-02-24T05:51:17.586Z,16.69
2023-02-24T05:51:48.993Z,16.71
2023-02-24T05:52:20.439Z,16.70
2023-02-24T05:52:51.855Z,16.70
2023-02-24T05:53:23.246Z,16.70
2023-02-24T05:53:54.638Z,16.70
2023-02-24T05:54:26.040Z,16.69
2023-02-24T05:54:57.483Z,16.70
2023-02-24T05:55:28.886Z,16.70
2023-02-24T05:56:00.290Z,16.69
2023-02-24T05:56:31.728Z,16.69
2023-02-24T05:57:03.143Z,16.69
2023-02-24T05:57:34.537Z,16.69
2023-02-24T05:58:05.985Z,16.69
2023-02-24T05:58:37.394Z,16.69
2023-02-24T05:59:08.798Z,16.69
2023-02-24T05:59:40.218Z,16.69
2023-02-24T06:00:11.615Z,16.70
2023-02-24T06:00:43.026Z,16.69
2023-02-24T06:01:14.430Z,16.69
2023-02-24T06:01:45.920Z,16.69
2023-02-24T06:02:17.487Z,16.69
2023-02-24T06:02:48.936Z,16.69
2023-02-24T06:03:20.396Z,16.68
2023-02-24T06:03:51.849Z,16.68
2023-02-24T06:04:23.269Z,16.68
2023-02-24T06:04:54.683Z,16.68
2023-02-24T06:05:26.101Z,16.68
2023-02-24T06:05:57.527Z,16.68
2023-02-24T06:06:29.020Z,16.67
2023-02-24T06:07:00.435Z,16.67
2023-02-24T06:07:31.872Z,16.67
2023-02-24T06:08:03.292Z,16.67
2023-02-24T06:08:34.701Z,16.66
2023-02-24T06:09:06.115Z,16.67
2023-02-24T06:09:37.504Z,16.67
2023-02-24T06:10:08.921Z,16.66
2023-02-24T06:10:40.346Z,16.66
2023-02-24T06:11:12.090Z,16.67
2023-02-24T06:11:43.545Z,16.66
2023-02-24T06:12:15.030Z,16.66
2023-02-24T06:12:46.483Z,16.66
2023-02-24T06:13:17.883Z,16.65
2023-02-24T06:13:49.295Z,16.67
2023-02-24T06:14:20.713Z,16.65
2023-02-24T06:14:52.140Z,16.65
2023-02-24T06:15:23.541Z,16.66
2023-02-24T06:15:54.963Z,16.66
2023-02-24T06:16:26.420Z,16.66
2023-02-24T06:16:57.868Z,16.65
2023-02-24T06:17:29.287Z,16.67
2023-02-24T06:18:00.751Z,16.67
2023-02-24T06:18:32.144Z,16.67
2023-02-24T06:19:03.540Z,16.67
2023-02-24T06:19:34.956Z,16.68
2023-02-24T06:20:06.358Z,16.69
2023-02-24T06:20:37.751Z,16.69
2023-02-24T06:21:09.158Z,16.68
2023-02-24T06:21:40.546Z,16.69
2023-02-24T06:22:11.957Z,16.68
2023-02-24T06:22:43.442Z,16.68
2023-02-24T06:23:14.908Z,16.68
2023-02-24T06:23:46.301Z,16.67
2023-02-24T06:24:17.699Z,16.67
2023-02-24T06:24:49.098Z,16.67
2023-02-24T06:25:20.503Z,16.67
2023-02-24T06:25:51.945Z,16.67
2023-02-24T06:26:23.355Z,16.67
2023-02-24T06:26:54.763Z,16.67
2023-02-24T06:27:26.334Z,16.68
2023-02-24T06:27:57.758Z,16.67
2023-02-24T06:28:29.173Z,16.68
2023-02-24T06:29:00.611Z,16.68
2023-02-24T06:29:32.014Z,16.67
2023-02-24T06:30:03.457Z,16.67
2023-02-24T06:30:34.943Z,16.67
2023-02-24T06:31:06.607Z,16.67
2023-02-24T06:31:38.172Z,16.68
2023-02-24T06:32:09.854Z,16.68
2023-02-24T06:32:41.412Z,16.67
2023-02-24T06:33:13.072Z,16.67
2023-02-24T06:33:44.480Z,16.67
2023-02-24T06:34:15.891Z,16.67
2023-02-24T06:34:47.294Z,16.67
2023-02-24T06:35:18.733Z,16.68
2023-02-24T06:35:50.125Z,16.67
2023-02-24T06:36:21.528Z,16.67
2023-02-24T06:36:52.957Z,16.68
2023-02-24T06:37:24.375Z,16.67
2023-02-24T06:37:55.915Z,16.67
2023-02-24T06:38:27.372Z,16.67
2023-02-24T06:38:58.824Z,16.66
2023-02-24T06:39:30.236Z,16.66
2023-02-24T06:40:01.648Z,16.67
2023-02-24T06:40:33.066Z,16.66
2023-02-24T06:41:04.489Z,16.67
2023-02-24T06:41:35.924Z,16.67
2023-02-24T06:42:07.330Z,16.67
2023-02-24T06:42:38.727Z,16.68
2023-02-24T06:43:10.142Z,16.67
2023-02-24T06:43:41.546Z,16.68
2023-02-24T06:44:12.991Z,16.67
2023-02-24T06:44:44.435Z,16.66